Time;durP1;ratioP1;P1;durP2;ratioP2;P2;SDS_P1;SDS_P2;PMS_P1;PMS_P2;Temp;Humidity;BMP_temperature;BMP_pressure;BME280_temperature;BME280_humidity;BME280_pressure;Samples;Min_cycle;Max_cycle;Signal;HPM_P1;HPM_P2
2023/08/01 00:02:12;;;;;;;12.35;6.55;;;;;;;;;;6213757;23;20024;-66
2023/08/01 00:04:38;;;;;;;15.15;6.82;;;;;;;;;;6214238;23;20532;-66
2023/08/01 00:07:04;;;;;;;14.18;6.35;;;;;;;;;;6214187;23;20051;-66
2023/08/01 00:09:30;;;;;;;13.23;6.00;;;;;;;;;;6186759;23;20067;-66
2023/08/01 00:11:56;;;;;;;18.40;7.30;;;;;;;;;;6214445;23;20051;-66
2023/08/01 00:14:24;;;;;;;10.63;6.63;;;;;;;;;;6214009;23;20020;-66
2023/08/01 00:16:50;;;;;;;12.63;6.57;;;;;;;;;;6213898;23;20027;-66
2023/08/01 00:19:16;;;;;;;18.02;7.18;;;;;;;;;;6213745;23;20017;-66
2023/08/01 00:21:42;;;;;;;15.13;7.95;;;;;;;;;;6214136;23;20320;-66
2023/08/01 00:24:08;;;;;;;13.73;8.10;;;;;;;;;;6213463;23;20013;-66
2023/08/01 00:26:35;;;;;;;21.95;9.73;;;;;;;;;;6213754;23;20017;-66
2023/08/01 00:29:01;;;;;;;15.95;7.65;;;;;;;;;;6213975;23;20039;-66
2023/08/01 00:31:27;;;;;;;16.85;8.38;;;;;;;;;;6213567;23;20290;-66
2023/08/01 00:33:53;;;;;;;15.35;9.23;;;;;;;;;;6213293;23;20020;-66
2023/08/01 00:36:19;;;;;;;19.10;9.20;;;;;;;;;;6213350;23;20095;-66
2023/08/01 00:38:45;;;;;;;19.13;8.73;;;;;;;;;;6213459;23;20108;-66
2023/08/01 00:41:11;;;;;;;21.65;8.60;;;;;;;;;;6214013;23;20020;-66
2023/08/01 00:43:37;;;;;;;16.92;8.77;;;;;;;;;;6213596;23;20614;-66
2023/08/01 00:46:05;;;;;;;15.95;8.43;;;;;;;;;;6213076;23;20436;-66
2023/08/01 00:48:31;;;;;;;15.95;8.63;;;;;;;;;;6213598;23;20016;-66
2023/08/01 00:50:58;;;;;;;21.88;8.52;;;;;;;;;;6213630;23;20009;-66
2023/08/01 00:53:24;;;;;;;17.27;9.40;;;;;;;;;;6213202;23;20070;-66
2023/08/01 00:55:53;;;;;;;18.80;8.90;;;;;;;;;;6213783;23;20336;-66
2023/08/01 00:58:19;;;;;;;20.10;9.38;;;;;;;;;;6213750;23;20016;-66
2023/08/01 01:00:46;;;;;;;15.82;8.43;;;;;;;;;;6213230;23;20104;-66
2023/08/01 01:03:12;;;;;;;16.27;8.05;;;;;;;;;;6213157;23;20229;-66
2023/08/01 01:05:40;;;;;;;20.58;9.65;;;;;;;;;;6213597;23;20064;-66
2023/08/01 01:08:06;;;;;;;17.00;8.55;;;;;;;;;;6213180;23;20012;-66
2023/08/01 01:10:32;;;;;;;16.65;9.00;;;;;;;;;;6213509;23;20377;-66
2023/08/01 01:12:59;;;;;;;18.33;8.45;;;;;;;;;;6213553;23;20016;-66
2023/08/01 01:15:25;;;;;;;18.15;8.43;;;;;;;;;;6213026;23;20454;-66
2023/08/01 01:17:51;;;;;;;18.25;9.98;;;;;;;;;;6213470;23;20039;-66
2023/08/01 01:20:20;;;;;;;24.77;9.43;;;;;;;;;;6213279;23;20016;-66
2023/08/01 01:22:46;;;;;;;18.65;9.07;;;;;;;;;;6212721;23;20062;-66
2023/08/01 01:25:12;;;;;;;21.98;9.18;;;;;;;;;;6185959;23;20024;-66
2023/08/01 01:27:38;;;;;;;18.90;8.93;;;;;;;;;;6186640;23;20013;-66
2023/08/01 01:30:05;;;;;;;16.58;7.88;;;;;;;;;;6212854;23;20499;-66
2023/08/01 01:32:31;;;;;;;13.40;7.13;;;;;;;;;;6213132;23;20016;-66
2023/08/01 01:34:58;;;;;;;16.60;6.88;;;;;;;;;;6213102;23;20017;-66
2023/08/01 01:37:24;;;;;;;17.35;7.05;;;;;;;;;;6212426;23;20490;-66
2023/08/01 01:39:50;;;;;;;14.63;5.93;;;;;;;;;;6213256;23;20536;-66
2023/08/01 01:42:16;;;;;;;13.95;5.47;;;;;;;;;;6213158;23;20012;-66
2023/08/01 01:44:42;;;;;;;10.52;5.22;;;;;;;;;;6212340;23;20017;-66
2023/08/01 01:47:08;;;;;;;12.20;5.22;;;;;;;;;;6213056;23;20012;-66
2023/08/01 01:49:34;;;;;;;14.90;5.93;;;;;;;;;;6186294;23;20321;-66
2023/08/01 01:52:00;;;;;;;15.98;5.13;;;;;;;;;;6212873;23;20022;-66
2023/08/01 01:54:26;;;;;;;11.80;4.47;;;;;;;;;;6213279;23;20019;-66
2023/08/01 01:56:53;;;;;;;11.63;4.55;;;;;;;;;;6213101;23;20024;-66
2023/08/01 01:59:19;;;;;;;13.48;5.00;;;;;;;;;;6213394;23;20016;-66
2023/08/01 02:01:45;;;;;;;14.00;4.85;;;;;;;;;;6212972;23;20016;-66
2023/08/01 02:04:11;;;;;;;9.93;4.10;;;;;;;;;;6212877;23;20016;-66
2023/08/01 02:06:37;;;;;;;10.90;4.18;;;;;;;;;;6212960;23;20040;-66
2023/08/01 02:09:04;;;;;;;9.40;4.53;;;;;;;;;;6212562;23;20013;-66
2023/08/01 02:11:30;;;;;;;14.05;4.10;;;;;;;;;;6212851;23;20078;-66
2023/08/01 02:13:56;;;;;;;12.45;5.18;;;;;;;;;;6213008;23;20016;-66
2023/08/01 02:16:22;;;;;;;11.80;4.50;;;;;;;;;;6212593;23;20099;-66
2023/08/01 02:18:48;;;;;;;12.32;4.72;;;;;;;;;;6213089;23;20048;-66
2023/08/01 02:21:14;;;;;;;12.27;4.85;;;;;;;;;;6212455;23;20340;-66
2023/08/01 02:23:40;;;;;;;14.88;5.00;;;;;;;;;;6212018;23;20017;-66
2023/08/01 02:26:08;;;;;;;14.43;4.35;;;;;;;;;;6212713;23;20012;-66
2023/08/01 02:28:34;;;;;;;11.00;4.95;;;;;;;;;;6186126;23;20087;-66
2023/08/01 02:31:00;;;;;;;12.13;5.35;;;;;;;;;;6212163;23;20099;-66
2023/08/01 02:33:26;;;;;;;14.10;4.95;;;;;;;;;;6212839;23;20048;-66
2023/08/01 02:35:52;;;;;;;9.38;4.85;;;;;;;;;;6212370;23;20359;-66
2023/08/01 02:38:18;;;;;;;13.02;5.60;;;;;;;;;;6212040;23;20016;-66
2023/08/01 02:40:44;;;;;;;11.32;5.45;;;;;;;;;;6212741;23;20301;-66
2023/08/01 02:43:10;;;;;;;12.00;5.90;;;;;;;;;;6212148;23;20023;-66
2023/08/01 02:45:36;;;;;;;13.98;5.97;;;;;;;;;;6212162;23;20656;-66
2023/08/01 02:48:02;;;;;;;12.38;5.63;;;;;;;;;;6212449;23;20024;-66
2023/08/01 02:50:28;;;;;;;10.68;5.97;;;;;;;;;;6212699;23;20361;-66
2023/08/01 02:52:54;;;;;;;15.30;6.75;;;;;;;;;;6185209;23;20024;-66
2023/08/01 02:55:20;;;;;;;12.93;6.70;;;;;;;;;;6212669;23;20012;-66
2023/08/01 02:57:46;;;;;;;13.50;6.00;;;;;;;;;;6212659;23;20470;-66
2023/08/01 03:00:12;;;;;;;12.80;5.82;;;;;;;;;;6211721;23;20056;-66
2023/08/01 03:02:41;;;;;;;15.90;6.07;;;;;;;;;;6212309;23;20036;-66
2023/08/01 03:05:08;;;;;;;16.23;6.50;;;;;;;;;;6212694;23;20017;-66
2023/08/01 03:07:34;;;;;;;17.13;7.10;;;;;;;;;;6212010;23;20016;-66
2023/08/01 03:10:00;;;;;;;12.20;6.35;;;;;;;;;;6212566;23;20052;-66
2023/08/01 03:12:27;;;;;;;13.35;6.03;;;;;;;;;;6211168;23;20013;-66
2023/08/01 03:14:53;;;;;;;21.60;6.57;;;;;;;;;;6212247;23;20478;-66
2023/08/01 03:17:19;;;;;;;15.90;5.95;;;;;;;;;;6212681;23;20017;-66
2023/08/01 03:19:45;;;;;;;14.55;6.22;;;;;;;;;;6212447;23;20013;-66
2023/08/01 03:22:11;;;;;;;17.42;6.07;;;;;;;;;;6211933;23;20012;-66
2023/08/01 03:24:37;;;;;;;16.95;5.97;;;;;;;;;;6212572;23;20019;-66
2023/08/01 03:27:03;;;;;;;8.68;3.95;;;;;;;;;;6212553;23;20008;-66
2023/08/01 03:29:29;;;;;;;10.85;4.45;;;;;;;;;;6212215;23;20016;-65
2023/08/01 03:31:55;;;;;;;10.07;3.80;;;;;;;;;;6212349;23;20093;-65
2023/08/01 03:34:21;;;;;;;6.97;3.28;;;;;;;;;;6212022;23;20016;-65
2023/08/01 03:36:47;;;;;;;5.78;2.35;;;;;;;;;;6211426;23;20016;-65
2023/08/01 03:39:13;;;;;;;3.22;2.00;;;;;;;;;;6212325;23;20021;-65
2023/08/01 03:41:40;;;;;;;4.22;1.90;;;;;;;;;;6212215;23;20020;-65
2023/08/01 03:44:06;;;;;;;6.47;1.92;;;;;;;;;;6211754;23;20051;-65
2023/08/01 03:46:32;;;;;;;4.90;1.73;;;;;;;;;;6212255;23;20017;-65
2023/08/01 03:48:58;;;;;;;6.72;1.95;;;;;;;;;;6212234;23;20015;-65
2023/08/01 03:51:24;;;;;;;4.95;1.60;;;;;;;;;;6210305;23;20013;-65
2023/08/01 03:53:50;;;;;;;8.52;2.45;;;;;;;;;;6212273;23;20066;-65
2023/08/01 03:56:16;;;;;;;4.22;1.90;;;;;;;;;;6212227;23;20013;-65
2023/08/01 03:58:42;;;;;;;3.55;1.63;;;;;;;;;;6211892;23;20023;-65
2023/08/01 04:01:08;;;;;;;3.95;1.90;;;;;;;;;;6212401;23;20048;-65
2023/08/01 04:03:34;;;;;;;6.13;1.85;;;;;;;;;;6212020;23;20013;-65
2023/08/01 04:06:00;;;;;;;3.22;1.67;;;;;;;;;;6184852;23;20024;-65
2023/08/01 04:08:27;;;;;;;5.20;2.00;;;;;;;;;;6212921;23;20054;-65
2023/08/01 04:10:53;;;;;;;3.00;1.58;;;;;;;;;;6213762;23;20075;-65
2023/08/01 04:13:19;;;;;;;2.92;1.52;;;;;;;;;;6213440;23;20055;-65
2023/08/01 04:15:45;;;;;;;3.58;1.60;;;;;;;;;;6214034;23;20012;-65
2023/08/01 04:18:11;;;;;;;2.85;1.20;;;;;;;;;;6213508;23;20016;-65
2023/08/01 04:20:37;;;;;;;3.60;1.30;;;;;;;;;;6213517;23;20017;-65
2023/08/01 04:23:03;;;;;;;3.63;1.40;;;;;;;;;;6213307;23;20017;-65
2023/08/01 04:25:29;;;;;;;4.95;1.02;;;;;;;;;;6213515;23;20021;-65
2023/08/01 04:27:55;;;;;;;3.53;1.65;;;;;;;;;;6213362;23;20023;-65
2023/08/01 04:30:21;;;;;;;3.20;1.40;;;;;;;;;;6213714;23;20451;-65
2023/08/01 04:32:47;;;;;;;1.58;1.33;;;;;;;;;;6213842;23;20013;-65
2023/08/01 04:35:13;;;;;;;3.83;1.30;;;;;;;;;;6213795;23;20016;-65
2023/08/01 04:37:39;;;;;;;3.15;1.40;;;;;;;;;;6213852;23;20025;-65
2023/08/01 04:40:05;;;;;;;3.13;1.38;;;;;;;;;;6214009;23;20020;-65
2023/08/01 04:42:31;;;;;;;4.82;1.48;;;;;;;;;;6213790;23;20017;-65
2023/08/01 04:44:57;;;;;;;2.97;1.45;;;;;;;;;;6214327;23;20521;-65
2023/08/01 04:47:24;;;;;;;5.40;1.50;;;;;;;;;;6213979;23;20051;-65
2023/08/01 04:49:50;;;;;;;4.97;1.55;;;;;;;;;;6213869;23;20009;-65
2023/08/01 04:52:16;;;;;;;4.82;1.50;;;;;;;;;;6214219;23;20008;-65
2023/08/01 04:54:42;;;;;;;2.80;1.60;;;;;;;;;;6214191;23;20490;-65
2023/08/01 04:57:08;;;;;;;4.35;1.70;;;;;;;;;;6213843;23;20017;-65
2023/08/01 04:59:34;;;;;;;5.88;1.77;;;;;;;;;;6214086;23;20055;-65
2023/08/01 05:02:00;;;;;;;4.93;1.70;;;;;;;;;;6212529;23;20021;-65
2023/08/01 05:04:26;;;;;;;3.22;1.45;;;;;;;;;;6213539;23;20446;-65
2023/08/01 05:06:52;;;;;;;4.60;1.50;;;;;;;;;;6213906;23;20017;-65
2023/08/01 05:09:18;;;;;;;5.32;1.98;;;;;;;;;;6214077;23;20012;-65
2023/08/01 05:11:44;;;;;;;5.13;2.15;;;;;;;;;;6213935;23;20016;-65
2023/08/01 05:14:10;;;;;;;4.07;2.42;;;;;;;;;;6213653;23;20020;-65
2023/08/01 05:16:36;;;;;;;3.08;1.27;;;;;;;;;;6213910;23;20008;-65
2023/08/01 05:19:02;;;;;;;4.65;1.90;;;;;;;;;;6213706;23;20055;-65
2023/08/01 05:21:28;;;;;;;3.08;1.20;;;;;;;;;;6213203;23;20495;-65
2023/08/01 05:23:54;;;;;;;4.28;1.90;;;;;;;;;;6213686;23;20467;-65
2023/08/01 05:26:20;;;;;;;5.20;2.40;;;;;;;;;;6213615;23;20019;-65
2023/08/01 05:28:46;;;;;;;7.10;3.88;;;;;;;;;;6213395;23;20019;-65
2023/08/01 05:31:12;;;;;;;7.90;4.50;;;;;;;;;;6213748;23;20016;-65
2023/08/01 05:33:38;;;;;;;5.30;2.90;;;;;;;;;;6213522;23;20023;-65
2023/08/01 05:36:05;;;;;;;7.10;2.15;;;;;;;;;;6212177;23;20099;-65
2023/08/01 05:38:31;;;;;;;4.10;1.90;;;;;;;;;;6213431;23;20020;-65
2023/08/01 05:40:57;;;;;;;4.22;2.00;;;;;;;;;;6213589;23;20112;-65
2023/08/01 05:43:23;;;;;;;7.95;2.22;;;;;;;;;;6213020;23;20484;-65
2023/08/01 05:45:49;;;;;;;5.70;2.40;;;;;;;;;;6213509;23;20070;-65
2023/08/01 05:48:15;;;;;;;4.63;1.88;;;;;;;;;;6213653;23;20057;-65
2023/08/01 05:50:41;;;;;;;4.90;2.03;;;;;;;;;;6213114;23;20013;-65
2023/08/01 05:53:08;;;;;;;5.00;2.13;;;;;;;;;;6213382;23;20043;-64
2023/08/01 05:55:34;;;;;;;6.22;2.20;;;;;;;;;;6211750;23;20036;-65
2023/08/01 05:58:00;;;;;;;3.97;2.00;;;;;;;;;;6185700;23;20344;-65
2023/08/01 06:00:26;;;;;;;6.25;2.08;;;;;;;;;;6185668;23;20427;-66
2023/08/01 06:02:52;;;;;;;5.75;2.38;;;;;;;;;;6213167;23;20336;-65
2023/08/01 06:05:18;;;;;;;6.25;2.60;;;;;;;;;;6212539;23;20428;-66
2023/08/01 06:07:44;;;;;;;4.13;1.90;;;;;;;;;;6211832;23;20017;-66
2023/08/01 06:10:10;;;;;;;5.75;2.58;;;;;;;;;;6213254;23;20009;-66
2023/08/01 06:12:36;;;;;;;5.43;2.00;;;;;;;;;;6212506;23;20020;-67
2023/08/01 06:15:02;;;;;;;4.03;2.00;;;;;;;;;;6212795;23;20128;-67
2023/08/01 06:17:28;;;;;;;7.75;2.03;;;;;;;;;;6213092;23;20412;-67
2023/08/01 06:19:54;;;;;;;4.28;1.73;;;;;;;;;;6212460;23;20104;-67
2023/08/01 06:22:20;;;;;;;5.03;1.65;;;;;;;;;;6213205;23;20048;-67
2023/08/01 06:24:46;;;;;;;9.05;2.90;;;;;;;;;;6213168;23;20019;-67
2023/08/01 06:27:14;;;;;;;5.45;2.08;;;;;;;;;;6212466;23;20024;-67
2023/08/01 06:29:41;;;;;;;6.03;2.08;;;;;;;;;;6212806;23;20032;-65
2023/08/01 06:32:07;;;;;;;5.43;2.42;;;;;;;;;;6212411;23;20337;-66
2023/08/01 06:34:33;;;;;;;4.72;1.73;;;;;;;;;;6212105;23;20032;-66
2023/08/01 06:36:59;;;;;;;3.00;1.52;;;;;;;;;;6211818;23;20023;-66
2023/08/01 06:39:25;;;;;;;4.72;1.70;;;;;;;;;;6211772;23;20023;-66
2023/08/01 06:41:51;;;;;;;4.22;1.60;;;;;;;;;;6211905;23;20024;-67
2023/08/01 06:44:17;;;;;;;4.95;1.60;;;;;;;;;;6211612;23;20520;-66
2023/08/01 06:46:43;;;;;;;7.07;1.85;;;;;;;;;;6212094;23;20021;-66
2023/08/01 06:49:09;;;;;;;3.63;1.60;;;;;;;;;;6211619;23;20040;-66
2023/08/01 06:51:35;;;;;;;5.18;2.05;;;;;;;;;;6212363;23;20012;-66
2023/08/01 06:54:01;;;;;;;4.88;1.40;;;;;;;;;;6212399;23;20021;-66
2023/08/01 06:56:27;;;;;;;6.45;1.75;;;;;;;;;;6211653;23;20052;-66
2023/08/01 06:58:53;;;;;;;3.55;1.60;;;;;;;;;;6185346;23;20025;-66
2023/08/01 07:01:19;;;;;;;4.18;1.88;;;;;;;;;;6212098;23;20013;-66
2023/08/01 07:03:45;;;;;;;6.57;1.73;;;;;;;;;;6210850;23;20012;-68
2023/08/01 07:06:12;;;;;;;5.07;1.98;;;;;;;;;;6212288;23;20013;-68
2023/08/01 07:08:37;;;;;;;4.88;1.70;;;;;;;;;;6212198;23;20009;-67
2023/08/01 07:11:04;;;;;;;3.92;1.50;;;;;;;;;;6211846;23;20012;-66
2023/08/01 07:13:30;;;;;;;5.53;1.38;;;;;;;;;;6211752;23;20116;-67
2023/08/01 07:15:56;;;;;;;5.35;1.55;;;;;;;;;;6211818;23;20085;-67
2023/08/01 07:18:22;;;;;;;5.95;1.60;;;;;;;;;;6211665;23;20472;-67
2023/08/01 07:20:48;;;;;;;3.55;1.48;;;;;;;;;;6212376;23;20066;-66
2023/08/01 07:23:14;;;;;;;3.47;1.60;;;;;;;;;;6212208;23;20024;-66
2023/08/01 07:25:40;;;;;;;4.18;1.58;;;;;;;;;;6211647;23;20095;-68
2023/08/01 07:28:06;;;;;;;6.25;1.73;;;;;;;;;;6212529;23;20021;-66
2023/08/01 07:30:32;;;;;;;4.47;1.48;;;;;;;;;;6212533;23;20096;-66
2023/08/01 07:32:58;;;;;;;5.68;1.50;;;;;;;;;;6185446;23;20044;-67
2023/08/01 07:35:24;;;;;;;6.03;1.60;;;;;;;;;;6211756;23;20024;-67
2023/08/01 07:37:50;;;;;;;3.30;1.80;;;;;;;;;;6211811;23;20026;-66
2023/08/01 07:40:16;;;;;;;6.60;1.58;;;;;;;;;;6211393;23;20024;-65
2023/08/01 07:42:42;;;;;;;5.80;1.48;;;;;;;;;;6211697;23;20024;-65
2023/08/01 07:45:08;;;;;;;5.25;1.67;;;;;;;;;;6213899;23;20018;-65
2023/08/01 07:47:34;;;;;;;4.90;1.52;;;;;;;;;;6213235;23;20432;-66
2023/08/01 07:50:00;;;;;;;4.13;1.88;;;;;;;;;;6212738;23;20363;-66
2023/08/01 07:52:26;;;;;;;4.10;1.70;;;;;;;;;;6213531;23;20067;-66
2023/08/01 07:54:53;;;;;;;6.07;1.65;;;;;;;;;;6213373;23;20043;-66
2023/08/01 07:57:19;;;;;;;5.80;1.92;;;;;;;;;;6213643;23;20441;-66
2023/08/01 07:59:45;;;;;;;6.03;1.90;;;;;;;;;;6213394;23;20024;-67
2023/08/01 08:02:11;;;;;;;8.63;2.00;;;;;;;;;;6213348;23;20012;-67
2023/08/01 08:04:37;;;;;;;5.10;1.80;;;;;;;;;;6213615;23;20012;-67
2023/08/01 08:07:03;;;;;;;5.53;1.67;;;;;;;;;;6213866;23;20092;-67
2023/08/01 08:09:29;;;;;;;5.07;1.85;;;;;;;;;;6213252;23;20067;-67
2023/08/01 08:11:57;;;;;;;7.72;2.25;;;;;;;;;;6213299;23;20023;-67
2023/08/01 08:14:23;;;;;;;5.60;2.08;;;;;;;;;;6213539;23;20027;-67
2023/08/01 08:16:50;;;;;;;5.68;1.50;;;;;;;;;;6213436;23;20040;-66
2023/08/01 08:19:16;;;;;;;5.07;2.10;;;;;;;;;;6213579;23;20486;-66
2023/08/01 08:21:42;;;;;;;6.72;2.10;;;;;;;;;;6213610;23;20013;-67
2023/08/01 08:24:08;;;;;;;6.70;1.77;;;;;;;;;;6213637;23;20024;-67
2023/08/01 08:26:37;;;;;;;6.05;1.80;;;;;;;;;;6213284;23;20015;-66
2023/08/01 08:29:04;;;;;;;4.80;1.70;;;;;;;;;;6213781;23;20013;-67
2023/08/01 08:31:31;;;;;;;5.00;1.85;;;;;;;;;;6213480;23;20013;-64
2023/08/01 08:33:57;;;;;;;6.68;1.83;;;;;;;;;;6213436;23;20027;-65
2023/08/01 08:36:23;;;;;;;4.88;1.90;;;;;;;;;;6213814;23;20025;-65
2023/08/01 08:38:50;;;;;;;5.35;1.70;;;;;;;;;;6214013;23;20075;-65
2023/08/01 08:41:20;;;;;;;7.93;2.22;;;;;;;;;;6213463;23;20104;-66
2023/08/01 08:43:48;;;;;;;5.43;2.10;;;;;;;;;;6212519;23;20027;-67
2023/08/01 08:46:15;;;;;;;5.97;2.20;;;;;;;;;;6213092;23;20044;-67
2023/08/01 08:48:42;;;;;;;6.15;2.40;;;;;;;;;;6213061;23;20013;-67
2023/08/01 08:51:08;;;;;;;6.65;2.58;;;;;;;;;;6213418;23;20352;-65
2023/08/01 08:53:35;;;;;;;7.90;2.58;;;;;;;;;;6214702;23;20031;-65
2023/08/01 08:56:02;;;;;;;6.78;3.10;;;;;;;;;;6212681;23;20091;-64
2023/08/01 08:58:31;;;;;;;7.47;2.80;;;;;;;;;;6213967;23;20020;-66
2023/08/01 09:00:57;;;;;;;8.35;3.13;;;;;;;;;;6213835;23;20024;-65
2023/08/01 09:03:23;;;;;;;6.70;3.03;;;;;;;;;;6212744;23;20021;-65
2023/08/01 09:05:51;;;;;;;12.20;3.25;;;;;;;;;;6213120;23;20012;-65
2023/08/01 09:08:19;;;;;;;9.15;3.80;;;;;;;;;;6213469;23;20058;-65
2023/08/01 09:10:45;;;;;;;10.68;3.90;;;;;;;;;;6214045;23;20013;-66
2023/08/01 09:13:11;;;;;;;10.68;3.50;;;;;;;;;;6213531;23;20365;-65
2023/08/01 09:15:38;;;;;;;11.75;3.58;;;;;;;;;;6213383;23;20455;-67
2023/08/01 09:18:06;;;;;;;9.75;4.45;;;;;;;;;;6212691;23;20464;-67
2023/08/01 09:20:46;;;;;;;13.73;3.85;;;;;;;;;;6213159;23;20074;-66
2023/08/01 09:23:12;;;;;;;8.57;3.70;;;;;;;;;;6213440;23;20044;-66
2023/08/01 09:25:38;;;;;;;9.30;3.78;;;;;;;;;;6213095;23;20024;-66
2023/08/01 09:28:15;;;;;;;8.60;3.13;;;;;;;;;;6213259;23;20016;-67
2023/08/01 09:31:08;;;;;;;8.93;3.35;;;;;;;;;;6213148;23;20012;-67
2023/08/01 09:33:41;;;;;;;6.95;3.05;;;;;;;;;;6207412;23;20023;-65
2023/08/01 09:36:07;;;;;;;8.70;3.30;;;;;;;;;;6213188;23;20039;-66
2023/08/01 09:38:37;;;;;;;9.15;2.80;;;;;;;;;;6213266;23;20313;-66
2023/08/01 09:41:04;;;;;;;10.35;2.53;;;;;;;;;;6215700;23;20048;-66
2023/08/01 09:43:36;;;;;;;4.80;2.70;;;;;;;;;;6214071;23;20008;-66
2023/08/01 09:46:03;;;;;;;5.30;2.75;;;;;;;;;;6213834;23;20013;-65
2023/08/01 09:48:30;;;;;;;6.43;2.78;;;;;;;;;;6213410;23;20017;-65
2023/08/01 09:51:07;;;;;;;6.32;2.70;;;;;;;;;;6214000;23;20087;-67
2023/08/01 09:53:33;;;;;;;7.50;2.55;;;;;;;;;;6212108;23;20016;-66
2023/08/01 09:56:03;;;;;;;6.88;2.80;;;;;;;;;;6212578;23;20013;-66
2023/08/01 09:58:36;;;;;;;6.70;2.50;;;;;;;;;;6212788;23;20040;-67
2023/08/01 10:01:02;;;;;;;7.20;2.50;;;;;;;;;;6211999;23;20027;-67
2023/08/01 10:03:29;;;;;;;7.35;2.55;;;;;;;;;;6212558;23;20016;-67
2023/08/01 10:05:56;;;;;;;7.70;2.45;;;;;;;;;;6212233;23;20695;-67
2023/08/01 10:08:22;;;;;;;8.15;2.50;;;;;;;;;;6212134;23;20008;-67
2023/08/01 10:10:49;;;;;;;7.47;2.58;;;;;;;;;;6186605;23;20023;-67
2023/08/01 10:13:15;;;;;;;7.25;2.72;;;;;;;;;;6212634;23;20087;-67
2023/08/01 10:15:41;;;;;;;5.65;2.47;;;;;;;;;;6212518;23;20062;-65
2023/08/01 10:18:09;;;;;;;3.97;2.10;;;;;;;;;;6212920;23;20015;-65
2023/08/01 10:20:36;;;;;;;5.32;2.63;;;;;;;;;;6212641;23;20486;-65
2023/08/01 10:23:02;;;;;;;9.27;2.33;;;;;;;;;;6213986;23;20017;-64
2023/08/01 10:25:30;;;;;;;10.73;3.10;;;;;;;;;;6213393;23;20507;-65
2023/08/01 10:28:03;;;;;;;7.07;2.35;;;;;;;;;;6213499;23;20020;-65
2023/08/01 10:30:29;;;;;;;7.55;2.80;;;;;;;;;;6212936;23;20013;-65
2023/08/01 10:32:59;;;;;;;7.60;2.78;;;;;;;;;;6212343;23;20017;-65
2023/08/01 10:35:37;;;;;;;11.18;2.53;;;;;;;;;;6212476;23;20087;-64
2023/08/01 10:38:08;;;;;;;11.50;3.10;;;;;;;;;;6212075;23;20056;-64
2023/08/01 10:40:34;;;;;;;7.93;2.90;;;;;;;;;;6212528;23;20035;-65
2023/08/01 10:43:00;;;;;;;7.13;2.58;;;;;;;;;;6212379;23;20016;-65
2023/08/01 10:45:28;;;;;;;9.95;2.72;;;;;;;;;;6211280;23;20013;-65
2023/08/01 10:47:54;;;;;;;7.68;2.78;;;;;;;;;;6212224;23;20012;-65
2023/08/01 10:50:21;;;;;;;12.13;3.22;;;;;;;;;;6212317;23;20012;-65
2023/08/01 10:52:47;;;;;;;11.10;3.35;;;;;;;;;;6211601;23;20013;-65
2023/08/01 10:55:13;;;;;;;9.80;3.30;;;;;;;;;;6212358;23;20039;-65
2023/08/01 10:57:40;;;;;;;6.32;2.47;;;;;;;;;;6211798;23;20021;-65
2023/08/01 11:00:09;;;;;;;9.40;3.00;;;;;;;;;;6211713;23;20436;-65
2023/08/01 11:02:36;;;;;;;15.18;3.33;;;;;;;;;;6211948;23;20019;-64
2023/08/01 11:05:03;;;;;;;13.82;3.80;;;;;;;;;;6211767;23;20020;-67
2023/08/01 11:07:29;;;;;;;11.23;3.35;;;;;;;;;;6211709;23;20017;-66
2023/08/01 11:10:03;;;;;;;9.68;3.38;;;;;;;;;;6211522;23;20013;-67
2023/08/01 11:12:30;;;;;;;9.43;3.10;;;;;;;;;;6212435;23;20020;-66
2023/08/01 11:15:00;;;;;;;15.90;2.88;;;;;;;;;;6211933;23;20028;-67
2023/08/01 11:17:26;;;;;;;10.40;2.53;;;;;;;;;;6212835;23;20112;-67
2023/08/01 11:20:00;;;;;;;9.82;1.80;;;;;;;;;;6214220;23;20016;-65
2023/08/01 11:22:26;;;;;;;9.82;2.53;;;;;;;;;;6214148;23;20016;-64
2023/08/01 11:24:52;;;;;;;5.55;1.77;;;;;;;;;;6214235;23;20017;-65
2023/08/01 11:27:18;;;;;;;8.00;2.80;;;;;;;;;;6214321;23;20091;-67
2023/08/01 11:29:44;;;;;;;9.00;2.60;;;;;;;;;;6213437;23;20020;-68
2023/08/01 11:32:12;;;;;;;7.28;2.10;;;;;;;;;;6213840;23;20035;-68
2023/08/01 11:34:44;;;;;;;9.98;2.20;;;;;;;;;;6214395;23;20349;-67
2023/08/01 11:37:10;;;;;;;10.10;2.28;;;;;;;;;;6216119;23;20056;-66
2023/08/01 11:39:37;;;;;;;5.60;1.95;;;;;;;;;;6216939;23;20119;-65
2023/08/01 11:42:03;;;;;;;10.70;2.25;;;;;;;;;;6217640;23;20031;-65
2023/08/01 11:44:29;;;;;;;9.90;2.50;;;;;;;;;;6214997;23;20432;-68
2023/08/01 11:46:55;;;;;;;9.23;3.40;;;;;;;;;;6213798;23;20020;-65
2023/08/01 11:49:22;;;;;;;8.65;2.50;;;;;;;;;;6214064;23;20285;-66
2023/08/01 11:51:49;;;;;;;9.20;2.20;;;;;;;;;;6213640;23;20013;-65
2023/08/01 11:54:15;;;;;;;8.90;2.15;;;;;;;;;;6214051;23;20387;-68
2023/08/01 11:56:42;;;;;;;4.00;1.40;;;;;;;;;;6214236;23;20046;-67
2023/08/01 11:59:12;;;;;;;6.07;1.50;;;;;;;;;;6213958;23;20099;-67
2023/08/01 12:01:39;;;;;;;4.50;1.38;;;;;;;;;;6213718;23;20059;-65
2023/08/01 12:04:05;;;;;;;4.43;1.52;;;;;;;;;;6213422;23;20092;-65
2023/08/01 12:06:32;;;;;;;5.75;1.70;;;;;;;;;;6212363;23;20016;-65
2023/08/01 12:09:07;;;;;;;3.88;1.48;;;;;;;;;;6212860;23;20091;-66
2023/08/01 12:11:33;;;;;;;6.13;1.70;;;;;;;;;;6187003;23;20012;-66
2023/08/01 12:14:09;;;;;;;6.85;1.83;;;;;;;;;;6212503;23;20020;-66
2023/08/01 12:16:35;;;;;;;5.18;1.83;;;;;;;;;;6213525;23;20052;-66
2023/08/01 12:19:01;;;;;;;5.70;1.85;;;;;;;;;;6213534;23;20012;-66
2023/08/01 12:21:27;;;;;;;6.78;2.00;;;;;;;;;;6213271;23;20364;-67
2023/08/01 12:23:53;;;;;;;6.38;1.67;;;;;;;;;;6213662;23;20327;-67
2023/08/01 12:26:19;;;;;;;11.65;2.80;;;;;;;;;;6214495;23;20046;-65
2023/08/01 12:28:46;;;;;;;7.60;2.58;;;;;;;;;;6213342;23;20015;-66
2023/08/01 12:31:16;;;;;;;8.57;2.00;;;;;;;;;;6215060;23;20013;-65
2023/08/01 12:33:41;;;;;;;5.90;1.98;;;;;;;;;;6213371;23;20017;-66
2023/08/01 12:36:07;;;;;;;7.15;1.90;;;;;;;;;;6213018;23;20400;-67
2023/08/01 12:38:33;;;;;;;6.93;2.33;;;;;;;;;;6213148;23;20024;-65
2023/08/01 12:40:59;;;;;;;6.00;1.60;;;;;;;;;;6213550;23;20016;-66
2023/08/01 12:43:26;;;;;;;5.43;1.52;;;;;;;;;;6212693;23;20023;-67
2023/08/01 12:45:52;;;;;;;5.55;1.50;;;;;;;;;;6213050;23;20078;-66
2023/08/01 12:48:18;;;;;;;3.95;1.65;;;;;;;;;;6213477;23;20013;-67
2023/08/01 12:50:45;;;;;;;3.65;1.50;;;;;;;;;;6212797;23;20012;-67
2023/08/01 12:53:11;;;;;;;9.85;2.20;;;;;;;;;;6213116;23;20313;-67
2023/08/01 12:55:37;;;;;;;7.85;2.10;;;;;;;;;;6212824;23;20020;-66
2023/08/01 12:58:03;;;;;;;4.90;1.75;;;;;;;;;;6212844;23;20436;-67
2023/08/01 13:00:30;;;;;;;8.77;1.90;;;;;;;;;;6212622;23;20088;-64
2023/08/01 13:02:56;;;;;;;6.88;1.70;;;;;;;;;;6212949;23;20051;-66
2023/08/01 13:05:22;;;;;;;6.35;1.90;;;;;;;;;;6213036;23;20537;-65
2023/08/01 13:07:49;;;;;;;9.80;2.10;;;;;;;;;;6212709;23;20013;-65
2023/08/01 13:10:15;;;;;;;7.07;1.88;;;;;;;;;;6212781;23;20340;-66
2023/08/01 13:12:41;;;;;;;5.97;1.80;;;;;;;;;;6213057;23;20088;-66
2023/08/01 13:15:08;;;;;;;7.32;2.08;;;;;;;;;;6212734;23;20617;-67
2023/08/01 13:17:34;;;;;;;11.32;2.28;;;;;;;;;;6213194;23;20508;-66
2023/08/01 13:20:00;;;;;;;8.00;2.17;;;;;;;;;;6213335;23;20017;-67
2023/08/01 13:22:26;;;;;;;6.70;2.13;;;;;;;;;;6212520;23;20444;-67
2023/08/01 13:24:52;;;;;;;5.45;1.80;;;;;;;;;;6212882;23;20016;-66
2023/08/01 13:27:19;;;;;;;8.38;1.90;;;;;;;;;;6213052;23;20044;-66
2023/08/01 13:29:46;;;;;;;5.68;1.63;;;;;;;;;;6185844;23;20071;-68
2023/08/01 13:32:11;;;;;;;6.60;2.38;;;;;;;;;;6213869;23;20036;-66
2023/08/01 13:34:37;;;;;;;7.53;2.38;;;;;;;;;;6212916;23;20027;-67
2023/08/01 13:37:04;;;;;;;3.50;1.52;;;;;;;;;;6212820;23;20155;-66
2023/08/01 13:39:30;;;;;;;4.38;1.45;;;;;;;;;;6212693;23;20017;-66
2023/08/01 13:41:56;;;;;;;8.77;1.50;;;;;;;;;;6212740;23;20021;-66
2023/08/01 13:44:22;;;;;;;6.70;1.83;;;;;;;;;;6212335;23;20023;-67
2023/08/01 13:46:48;;;;;;;7.63;1.50;;;;;;;;;;6212901;23;20016;-68
2023/08/01 13:49:14;;;;;;;4.13;1.33;;;;;;;;;;6212971;23;20439;-67
2023/08/01 13:51:40;;;;;;;3.40;1.45;;;;;;;;;;6212510;23;20012;-67
2023/08/01 13:54:06;;;;;;;7.05;1.40;;;;;;;;;;6212460;23;20456;-67
2023/08/01 13:56:32;;;;;;;2.47;1.40;;;;;;;;;;6213087;23;20051;-66
2023/08/01 13:58:58;;;;;;;6.32;1.42;;;;;;;;;;6212108;23;20028;-66
2023/08/01 14:01:24;;;;;;;5.18;1.83;;;;;;;;;;6186000;23;20017;-66
2023/08/01 14:03:50;;;;;;;5.07;1.23;;;;;;;;;;6212527;23;20012;-65
2023/08/01 14:06:16;;;;;;;6.68;1.30;;;;;;;;;;6212244;23;20011;-66
2023/08/01 14:08:43;;;;;;;3.42;1.00;;;;;;;;;;6213360;23;20087;-65
2023/08/01 14:11:10;;;;;;;5.18;1.15;;;;;;;;;;6214209;23;20084;-66
2023/08/01 14:13:43;;;;;;;4.07;0.90;;;;;;;;;;5158729;27;20436;-66
2023/08/01 14:16:09;;;;;;;3.35;1.00;;;;;;;;;;5171548;27;20077;-66
2023/08/01 14:18:35;;;;;;;3.08;0.93;;;;;;;;;;5170360;27;20070;-64
2023/08/01 14:21:01;;;;;;;5.03;1.65;;;;;;;;;;5169552;27;20034;-65
2023/08/01 14:23:27;;;;;;;4.72;1.02;;;;;;;;;;5168963;27;20042;-64
2023/08/01 14:25:53;;;;;;;3.65;0.88;;;;;;;;;;5162304;27;20074;-64
2023/08/01 14:28:19;;;;;;;3.33;1.23;;;;;;;;;;5149179;27;20049;-65
2023/08/01 14:30:45;;;;;;;3.38;0.75;;;;;;;;;;5149416;27;20490;-65
2023/08/01 14:33:13;;;;;;;6.82;1.38;;;;;;;;;;5149018;27;20041;-64
2023/08/01 14:35:39;;;;;;;4.43;0.90;;;;;;;;;;5134739;27;20619;-64